Time;durP1;ratioP1;P1;durP2;ratioP2;P2;SDS_P1;SDS_P2;PMS_P1;PMS_P2;Temp;Humidity;BMP_temperature;BMP_pressure;BME280_temperature;BME280_humidity;BME280_pressure;Samples;Min_cycle;Max_cycle;Signal;HPM_P1;HPM_P2
2023/06/21 00:00:12;;;;;;;11.50;10.32;;;;;;;17.48;100.00;101162.16;5072423;28;20094;-79
2023/06/21 00:02:39;;;;;;;12.63;10.82;;;;;;;17.54;100.00;101176.47;5072561;28;20048;-79
2023/06/21 00:05:06;;;;;;;13.48;10.90;;;;;;;17.54;100.00;101180.88;5072411;28;20031;-79
2023/06/21 00:07:31;;;;;;;12.30;10.50;;;;;;;17.58;100.00;101196.13;5072007;28;20024;-79
2023/06/21 00:09:57;;;;;;;12.27;9.82;;;;;;;17.53;100.00;101192.28;5072156;28;20021;-79
2023/06/21 00:12:22;;;;;;;12.73;10.93;;;;;;;17.56;100.00;101205.06;5072227;28;20534;-78
2023/06/21 00:14:47;;;;;;;11.82;10.57;;;;;;;17.55;100.00;101192.97;5072387;28;20485;-79
2023/06/21 00:17:13;;;;;;;13.45;11.18;;;;;;;17.45;100.00;101183.31;5054044;28;20120;-81
2023/06/21 00:19:39;;;;;;;13.95;11.23;;;;;;;17.54;100.00;101209.59;5072322;28;20099;-81
2023/06/21 00:22:05;;;;;;;12.88;11.18;;;;;;;17.37;100.00;101185.75;5071712;28;20031;-81
2023/06/21 00:24:30;;;;;;;13.63;11.68;;;;;;;17.54;100.00;101213.03;5072140;28;20025;-81
2023/06/21 00:26:56;;;;;;;14.80;11.55;;;;;;;17.54;100.00;101214.81;5071919;28;20106;-78
2023/06/21 00:29:21;;;;;;;12.95;11.55;;;;;;;17.55;100.00;101225.13;5072090;28;20100;-79
2023/06/21 00:31:47;;;;;;;13.27;11.48;;;;;;;17.52;100.00;101217.56;5071740;28;20446;-78
2023/06/21 00:34:12;;;;;;;13.18;11.68;;;;;;;17.55;100.00;101219.09;5072035;28;20041;-79
2023/06/21 00:36:41;;;;;;;13.65;11.32;;;;;;;17.34;100.00;101180.81;5071852;28;20127;-80
2023/06/21 00:39:07;;;;;;;14.40;12.90;;;;;;;17.45;100.00;101206.81;5075334;28;20086;-80
2023/06/21 00:41:32;;;;;;;15.25;12.32;;;;;;;17.49;100.00;101223.84;5075565;28;20025;-77
2023/06/21 00:43:58;;;;;;;15.63;13.30;;;;;;;17.49;100.00;101218.63;5075387;28;20363;-78
2023/06/21 00:46:24;;;;;;;15.32;13.13;;;;;;;17.41;100.00;101215.88;5075271;28;20016;-78
2023/06/21 00:48:49;;;;;;;15.32;13.23;;;;;;;17.42;100.00;101221.94;5075091;28;20035;-81
2023/06/21 00:51:15;;;;;;;17.27;13.15;;;;;;;17.43;100.00;101223.59;5075395;28;20109;-78
2023/06/21 00:53:41;;;;;;;15.98;14.18;;;;;;;17.19;100.00;101190.75;5075395;28;20052;-79
2023/06/21 00:56:06;;;;;;;16.00;13.80;;;;;;;17.31;100.00;101209.78;5075223;28;20031;-79
2023/06/21 00:58:33;;;;;;;14.70;13.10;;;;;;;17.25;100.00;101201.66;5057272;28;20462;-79
2023/06/21 01:00:59;;;;;;;15.63;13.40;;;;;;;17.40;100.00;101234.25;5075114;28;20024;-79
2023/06/21 01:03:26;;;;;;;15.85;14.15;;;;;;;17.38;100.00;101233.56;5074968;28;20032;-77
2023/06/21 01:06:10;;;;;;;16.02;13.23;;;;;;;17.35;100.00;101239.88;5074937;28;20539;-79
2023/06/21 01:09:16;;;;;;;15.20;13.57;;;;;;;17.19;100.00;101216.84;5074963;28;20033;-79
2023/06/21 01:11:47;;;;;;;15.45;13.82;;;;;;;17.11;100.00;101208.88;4993533;28;20033;-79
2023/06/21 01:14:12;;;;;;;17.70;14.27;;;;;;;17.30;100.00;101247.28;4993578;28;20431;-79
2023/06/21 01:16:42;;;;;;;16.15;14.55;;;;;;;17.27;100.00;101250.16;4993416;28;20042;-79
2023/06/21 01:19:25;;;;;;;15.88;13.98;;;;;;;17.11;100.00;101223.72;4993421;28;20129;-79
2023/06/21 01:21:53;;;;;;;16.27;14.52;;;;;;;17.23;100.00;101240.09;4993441;28;20026;-79
2023/06/21 01:24:23;;;;;;;16.50;14.43;;;;;;;17.26;100.00;101243.28;4993094;28;20031;-79
2023/06/21 01:27:03;;;;;;;16.20;14.50;;;;;;;17.22;100.00;101239.28;4993074;28;20431;-79
2023/06/21 01:29:33;;;;;;;16.38;14.32;;;;;;;17.16;100.00;101234.56;4993323;28;20129;-79
2023/06/21 01:32:01;;;;;;;17.92;14.90;;;;;;;17.13;100.00;101233.06;4993271;28;20180;-79
2023/06/21 01:34:27;;;;;;;16.58;14.60;;;;;;;17.17;100.00;101249.28;4993020;28;20053;-79
2023/06/21 01:36:53;;;;;;;18.65;15.10;;;;;;;17.16;100.00;101252.84;5009263;28;20030;-79
2023/06/21 01:39:19;;;;;;;17.08;15.13;;;;;;;17.02;100.00;101232.31;4992828;28;20053;-80
2023/06/21 01:41:45;;;;;;;19.48;15.80;;;;;;;17.08;100.00;101240.44;4993346;28;20026;-77
2023/06/21 01:44:10;;;;;;;17.00;14.75;;;;;;;17.11;100.00;101255.03;4993156;28;20113;-79
2023/06/21 01:46:36;;;;;;;21.10;15.82;;;;;;;16.91;100.00;101223.59;5065453;28;20066;-79
2023/06/21 01:49:06;;;;;;;16.45;14.75;;;;;;;16.99;100.00;101242.97;5073443;28;20028;-80
2023/06/21 01:51:34;;;;;;;17.35;15.55;;;;;;;17.05;100.00;101260.75;5073936;28;20470;-80
2023/06/21 01:53:59;;;;;;;18.00;14.52;;;;;;;17.01;100.00;101249.75;5074152;28;20385;-78
2023/06/21 01:56:25;;;;;;;18.92;16.65;;;;;;;17.03;100.00;101247.81;5074165;28;20024;-79
2023/06/21 01:58:51;;;;;;;18.45;15.70;;;;;;;16.95;100.00;101249.41;5074017;28;20032;-79
2023/06/21 02:01:18;;;;;;;17.50;14.98;;;;;;;16.99;100.00;101258.63;5073807;28;20028;-79
2023/06/21 02:03:49;;;;;;;18.23;15.55;;;;;;;16.88;100.00;101252.53;5074102;28;20025;-79
2023/06/21 02:06:16;;;;;;;17.15;15.35;;;;;;;16.54;100.00;101212.72;5073789;28;20031;-78
2023/06/21 02:08:42;;;;;;;19.95;15.60;;;;;;;16.90;100.00;101262.81;5073762;28;20032;-79
2023/06/21 02:11:08;;;;;;;17.20;15.43;;;;;;;16.81;100.00;101267.03;5074005;28;20020;-79
2023/06/21 02:13:33;;;;;;;18.02;15.73;;;;;;;16.88;100.00;101280.38;5073912;28;20024;-79
2023/06/21 02:15:59;;;;;;;19.42;15.80;;;;;;;16.75;100.00;101267.53;5073626;28;20024;-79
2023/06/21 02:18:25;;;;;;;17.40;15.60;;;;;;;16.80;100.00;101282.78;5073727;28;20017;-79
2023/06/21 02:20:52;;;;;;;17.75;15.63;;;;;;;16.79;100.00;101271.53;5073735;28;20021;-79
2023/06/21 02:23:17;;;;;;;16.75;15.00;;;;;;;16.74;100.00;101260.66;5073343;28;20025;-79
2023/06/21 02:25:43;;;;;;;17.05;15.35;;;;;;;16.54;100.00;101254.44;5073679;28;20039;-79
2023/06/21 02:28:08;;;;;;;19.13;15.73;;;;;;;16.58;100.00;101271.47;5072620;28;20039;-79
2023/06/21 02:30:33;;;;;;;17.85;15.93;;;;;;;16.66;100.00;101285.69;5073382;28;20036;-79
2023/06/21 02:32:59;;;;;;;20.67;15.57;;;;;;;16.66;100.00;101301.31;5073317;28;20099;-79
2023/06/21 02:35:25;;;;;;;17.33;15.55;;;;;;;16.62;100.00;101301.59;5054894;28;20485;-79
2023/06/21 02:37:50;;;;;;;17.15;15.35;;;;;;;16.45;100.00;101276.03;5055200;28;20028;-80
2023/06/21 02:40:16;;;;;;;16.92;15.07;;;;;;;16.46;100.00;101282.06;5073147;28;20029;-78
2023/06/21 02:42:41;;;;;;;18.05;16.15;;;;;;;16.48;100.00;101291.44;5073254;28;20025;-81
2023/06/21 02:45:09;;;;;;;20.10;17.95;;;;;;;16.39;100.00;101265.28;5073279;28;20048;-79
2023/06/21 02:47:35;;;;;;;19.60;16.85;;;;;;;16.59;100.00;101309.63;5073085;28;20039;-81
2023/06/21 02:50:00;;;;;;;18.88;16.83;;;;;;;16.60;100.00;101307.84;5072949;28;20119;-79
2023/06/21 02:52:25;;;;;;;19.23;17.23;;;;;;;16.59;100.00;101314.84;5072830;28;20024;-81
2023/06/21 02:54:53;;;;;;;19.40;17.40;;;;;;;16.60;100.00;101313.06;5073028;28;20021;-79
2023/06/21 02:57:22;;;;;;;19.63;17.63;;;;;;;16.62;100.00;101314.63;5054729;28;20469;-79
2023/06/21 02:59:48;;;;;;;20.10;16.90;;;;;;;16.57;100.00;101313.31;5072676;28;20390;-79
2023/06/21 03:02:14;;;;;;;18.58;16.58;;;;;;;16.60;100.00;101320.88;5071199;28;20432;-79
2023/06/21 03:04:39;;;;;;;20.63;18.45;;;;;;;16.51;100.00;101319.84;5072809;28;20100;-79
2023/06/21 03:07:05;;;;;;;21.48;17.85;;;;;;;16.56;100.00;101332.53;5072647;28;20032;-79
2023/06/21 03:09:32;;;;;;;21.20;18.35;;;;;;;16.57;100.00;101332.41;5072571;28;20058;-79
2023/06/21 03:11:57;;;;;;;20.98;18.33;;;;;;;16.54;100.00;101340.47;5072527;28;20032;-79
2023/06/21 03:14:23;;;;;;;20.63;18.45;;;;;;;16.57;100.00;101334.19;5072835;28;20074;-79
2023/06/21 03:16:49;;;;;;;20.17;18.00;;;;;;;16.33;100.00;101311.75;5071669;28;20398;-80
2023/06/21 03:19:18;;;;;;;21.00;18.63;;;;;;;16.54;100.00;101355.31;5072666;28;20025;-79
2023/06/21 03:21:43;;;;;;;20.52;17.85;;;;;;;16.39;100.00;101330.44;5072670;28;20133;-79
2023/06/21 03:24:08;;;;;;;20.85;18.25;;;;;;;16.54;100.00;101358.72;5072379;28;20017;-79
2023/06/21 03:26:35;;;;;;;21.27;18.98;;;;;;;16.47;100.00;101348.91;5072652;28;20021;-79
2023/06/21 03:29:02;;;;;;;20.92;18.70;;;;;;;16.42;100.00;101340.59;5072539;28;20040;-79
2023/06/21 03:31:28;;;;;;;22.52;19.67;;;;;;;16.44;100.00;101349.97;5072650;28;20078;-79
2023/06/21 03:33:53;;;;;;;22.00;19.05;;;;;;;16.67;100.00;101374.22;5072310;28;20045;-79
2023/06/21 03:36:19;;;;;;;22.83;20.25;;;;;;;16.74;100.00;101367.59;5072551;28;20436;-79
2023/06/21 03:38:44;;;;;;;22.77;20.38;;;;;;;16.67;100.00;101348.13;5072297;28;20378;-80
2023/06/21 03:41:09;;;;;;;22.67;19.75;;;;;;;16.69;100.00;101346.25;5054040;28;20064;-79
2023/06/21 03:43:35;;;;;;;23.10;20.08;;;;;;;16.67;100.00;101353.34;5072339;28;20090;-79
2023/06/21 03:46:00;;;;;;;22.95;19.75;;;;;;;16.63;100.00;101341.53;5072380;28;20017;-81
2023/06/21 03:48:26;;;;;;;22.63;19.27;;;;;;;16.74;100.00;101351.94;5030116;28;20037;-79
2023/06/21 03:50:51;;;;;;;22.20;19.85;;;;;;;16.82;100.00;101372.22;5030309;28;20033;-79
2023/06/21 03:53:16;;;;;;;21.05;18.50;;;;;;;16.44;100.00;101294.41;5030067;28;20038;-79
2023/06/21 03:55:43;;;;;;;23.13;19.88;;;;;;;16.80;100.00;101334.97;5030340;28;20044;-79
2023/06/21 03:58:09;;;;;;;23.45;20.63;;;;;;;16.95;100.00;101365.03;5029871;28;20046;-79
2023/06/21 04:00:35;;;;;;;23.20;20.30;;;;;;;17.10;100.00;101373.38;5030561;28;20474;-79
2023/06/21 04:03:00;;;;;;;24.02;21.48;;;;;;;17.13;100.00;101362.72;5030231;28;20042;-79
2023/06/21 04:05:25;;;;;;;24.42;21.48;;;;;;;17.18;100.00;101365.75;5030065;28;20026;-79
2023/06/21 04:07:51;;;;;;;24.02;21.45;;;;;;;17.35;100.00;101378.25;5030023;28;20045;-79
2023/06/21 04:10:16;;;;;;;23.25;20.70;;;;;;;17.45;100.00;101373.91;5030160;28;20129;-80
2023/06/21 04:12:42;;;;;;;22.75;20.25;;;;;;;17.51;100.00;101377.00;5031812;28;20483;-79
2023/06/21 04:15:07;;;;;;;23.60;21.15;;;;;;;17.57;100.00;101373.84;5017168;28;20072;-80
2023/06/21 04:17:36;;;;;;;23.38;20.98;;;;;;;17.72;100.00;101385.66;5034059;28;20036;-79
2023/06/21 04:20:10;;;;;;;24.38;20.58;;;;;;;17.80;100.00;101383.25;5065399;28;20481;-80
2023/06/21 04:22:37;;;;;;;21.90;19.52;;;;;;;17.82;100.00;101388.34;5075853;28;20056;-79
2023/06/21 04:25:03;;;;;;;22.25;19.95;;;;;;;17.90;100.00;101397.19;5075532;28;20023;-80
2023/06/21 04:27:28;;;;;;;23.35;20.80;;;;;;;17.91;100.00;101401.44;5075571;28;20527;-80
2023/06/21 04:29:53;;;;;;;21.58;19.35;;;;;;;17.88;100.00;101393.84;5075582;28;20028;-80
2023/06/21 04:32:19;;;;;;;22.00;19.73;;;;;;;17.88;100.00;101388.63;5075719;28;20090;-80
2023/06/21 04:34:47;;;;;;;22.42;20.02;;;;;;;17.83;100.00;101369.91;5075680;28;20072;-80
2023/06/21 04:37:13;;;;;;;23.58;21.13;;;;;;;18.14;100.00;101403.88;5074387;28;20124;-80
2023/06/21 04:39:38;;;;;;;23.63;21.33;;;;;;;18.26;100.00;101400.19;5075388;28;20412;-81
2023/06/21 04:42:04;;;;;;;22.50;20.17;;;;;;;18.73;100.00;101384.78;5075553;28;20020;-80
2023/06/21 04:44:29;;;;;;;21.65;19.45;;;;;;;19.23;100.00;101393.34;5075579;28;20092;-79
2023/06/21 04:46:55;;;;;;;22.25;19.95;;;;;;;19.49;100.00;101388.38;5075461;28;20028;-80
2023/06/21 04:49:25;;;;;;;21.98;19.13;;;;;;;19.58;100.00;101400.66;5075246;28;20029;-80
2023/06/21 04:51:51;;;;;;;22.52;19.30;;;;;;;19.62;100.00;101409.88;5075472;28;20415;-80
2023/06/21 04:54:17;;;;;;;21.40;19.00;;;;;;;19.87;100.00;101411.06;5075128;28;20103;-80
2023/06/21 04:56:42;;;;;;;22.73;20.33;;;;;;;20.03;100.00;101416.50;5074914;28;20060;-81
2023/06/21 04:59:08;;;;;;;22.75;19.92;;;;;;;20.02;100.00;101380.78;5075085;28;20032;-81
2023/06/21 05:01:33;;;;;;;22.38;19.83;;;;;;;20.36;100.00;101380.22;5075245;28;20024;-80
2023/06/21 05:03:59;;;;;;;21.80;19.63;;;;;;;21.17;100.00;101411.72;5075093;28;20037;-78
2023/06/21 05:06:27;;;;;;;20.20;18.08;;;;;;;21.46;100.00;101422.00;5075032;28;20025;-78
2023/06/21 05:08:53;;;;;;;20.85;18.77;;;;;;;21.81;100.00;101407.94;5056519;28;20038;-78
2023/06/21 05:11:19;;;;;;;20.38;18.25;;;;;;;22.21;97.52;101404.69;5074649;28;20024;-81
2023/06/21 05:13:44;;;;;;;20.05;17.60;;;;;;;22.75;93.64;101431.53;5075088;28;20025;-81
2023/06/21 05:16:09;;;;;;;20.63;18.42;;;;;;;22.96;91.45;101417.94;5075034;28;20032;-80
2023/06/21 05:18:35;;;;;;;20.02;17.88;;;;;;;23.39;88.60;101421.22;5074912;28;20024;-81
2023/06/21 05:21:01;;;;;;;20.60;17.58;;;;;;;24.18;86.37;101438.88;5074913;28;20020;-80
2023/06/21 05:23:26;;;;;;;12.75;11.43;;;;;;;24.85;78.77;101439.25;5074042;28;20355;-80
2023/06/21 05:25:51;;;;;;;15.98;14.38;;;;;;;24.94;77.40;101445.31;5074304;28;20066;-80
2023/06/21 05:28:17;;;;;;;15.85;14.25;;;;;;;24.42;78.19;101432.75;5074752;28;20484;-80
2023/06/21 05:30:42;;;;;;;11.75;10.63;;;;;;;23.87;80.48;101425.63;5074608;28;20028;-80
2023/06/21 05:33:07;;;;;;;17.15;15.25;;;;;;;23.94;81.70;101453.00;5055805;28;20052;-80
2023/06/21 05:35:35;;;;;;;14.15;12.65;;;;;;;23.82;81.32;101464.91;5056690;28;20119;-81
2023/06/21 05:38:00;;;;;;;18.85;16.27;;;;;;;23.33;85.03;101458.81;5074321;28;20028;-80
2023/06/21 05:40:25;;;;;;;19.23;17.20;;;;;;;22.98;85.86;101431.75;5074250;28;20024;-80
2023/06/21 05:42:51;;;;;;;15.57;13.90;;;;;;;23.69;82.62;101417.09;5074603;28;20078;-80
2023/06/21 05:45:17;;;;;;;17.88;14.95;;;;;;;24.63;78.71;101461.19;5074694;28;20445;-80
2023/06/21 05:47:43;;;;;;;14.80;13.27;;;;;;;25.66;73.72;101463.41;5073937;28;20028;-80
2023/06/21 05:50:09;;;;;;;17.17;15.30;;;;;;;26.31;69.72;101444.22;5072259;28;20125;-80
2023/06/21 05:52:35;;;;;;;14.50;12.93;;;;;;;26.98;66.53;101445.78;5074352;28;20052;-78
2023/06/21 05:55:00;;;;;;;15.40;13.27;;;;;;;27.95;63.41;101481.31;5074688;28;20032;-78
2023/06/21 05:57:26;;;;;;;14.00;12.55;;;;;;;28.03;60.85;101431.75;5073897;28;20078;-82
2023/06/21 05:59:52;;;;;;;13.98;12.50;;;;;;;28.49;60.12;101474.44;5072166;28;20394;-81
2023/06/21 06:02:17;;;;;;;15.15;12.73;;;;;;;28.63;58.99;101484.13;5074112;28;20025;-81
2023/06/21 06:04:43;;;;;;;16.45;12.95;;;;;;;27.96;60.94;101490.09;5053972;28;20028;-79
2023/06/21 06:07:08;;;;;;;15.25;13.50;;;;;;;27.10;62.28;101492.84;5074663;28;20031;-78
2023/06/21 06:09:33;;;;;;;14.45;12.95;;;;;;;26.17;65.93;101492.72;5074118;28;20029;-80
2023/06/21 06:11:59;;;;;;;16.05;14.25;;;;;;;25.41;69.58;101500.66;5073666;28;20086;-80
2023/06/21 06:14:24;;;;;;;15.98;14.38;;;;;;;24.74;72.50;101476.63;5073572;28;20029;-78
2023/06/21 06:16:50;;;;;;;18.33;16.38;;;;;;;24.74;73.29;101510.16;5073569;28;20027;-78
2023/06/21 06:19:15;;;;;;;16.25;14.57;;;;;;;24.53;75.03;101481.69;5073963;28;20037;-78
2023/06/21 06:21:41;;;;;;;16.98;14.70;;;;;;;24.97;72.14;101495.16;5073589;28;20054;-79
2023/06/21 06:24:06;;;;;;;16.17;14.05;;;;;;;26.03;70.08;101512.84;5073681;28;20032;-79
2023/06/21 06:26:32;;;;;;;18.98;14.65;;;;;;;26.43;67.85;101498.38;5073222;28;20051;-78
2023/06/21 06:28:57;;;;;;;16.50;13.30;;;;;;;27.11;63.79;101491.84;5072898;28;20112;-78
2023/06/21 06:31:25;;;;;;;15.10;12.85;;;;;;;27.65;61.27;101509.91;5073479;28;20374;-79
2023/06/21 06:33:51;;;;;;;16.65;12.77;;;;;;;28.59;57.49;101525.38;5072979;28;20048;-79
2023/06/21 06:36:17;;;;;;;14.25;12.20;;;;;;;29.02;56.01;101523.31;5073103;28;20166;-79
2023/06/21 06:38:46;;;;;;;14.07;12.48;;;;;;;29.37;53.82;101528.47;5073178;28;20127;-79
2023/06/21 06:41:11;;;;;;;14.13;12.70;;;;;;;29.58;52.42;101516.84;5073098;28;20108;-79
2023/06/21 06:43:36;;;;;;;13.50;11.70;;;;;;;30.10;50.49;101533.84;5072979;28;20163;-79
2023/06/21 06:46:02;;;;;;;12.38;10.80;;;;;;;30.36;50.59;101530.25;5073023;28;20099;-79
2023/06/21 06:48:27;;;;;;;14.35;12.85;;;;;;;30.43;49.94;101539.88;5072977;28;20557;-78
2023/06/21 06:50:53;;;;;;;16.45;13.75;;;;;;;30.75;48.10;101531.97;5072596;28;20488;-81
2023/06/21 06:53:18;;;;;;;13.80;12.32;;;;;;;30.67;49.12;101548.22;5073093;28;20566;-77
2023/06/21 06:55:43;;;;;;;13.60;12.07;;;;;;;30.51;48.66;101555.63;5072553;28;20020;-77
2023/06/21 06:58:09;;;;;;;15.90;13.10;;;;;;;29.86;49.60;101540.59;5072626;28;20028;-78
2023/06/21 07:00:34;;;;;;;13.77;12.38;;;;;;;30.04;51.02;101562.06;5072645;28;20500;-80
2023/06/21 07:02:59;;;;;;;13.85;11.40;;;;;;;29.40;50.08;101560.84;5072698;28;20174;-80
2023/06/21 07:05:25;;;;;;;12.88;11.48;;;;;;;29.36;51.90;101561.44;5054995;28;20095;-79
2023/06/21 07:07:52;;;;;;;12.63;11.32;;;;;;;29.76;51.17;101572.94;5054762;28;20089;-78
2023/06/21 07:10:18;;;;;;;11.70;10.50;;;;;;;30.15;49.46;101568.63;5054959;28;20465;-76
2023/06/21 07:12:43;;;;;;;12.85;11.50;;;;;;;31.00;48.15;101570.22;5070677;28;20051;-76
2023/06/21 07:15:09;;;;;;;12.23;10.98;;;;;;;31.43;49.05;101574.88;5072751;28;20170;-77
2023/06/21 07:17:34;;;;;;;12.50;11.20;;;;;;;31.51;46.30;101563.94;5072520;28;20033;-77
2023/06/21 07:20:00;;;;;;;12.20;10.52;;;;;;;31.10;47.50;101569.75;5072444;28;20521;-78
2023/06/21 07:22:25;;;;;;;11.32;10.07;;;;;;;31.71;46.36;101565.66;5072374;28;20044;-77
2023/06/21 07:24:50;;;;;;;13.23;10.90;;;;;;;31.96;44.79;101545.94;5072127;28;20117;-77
2023/06/21 07:27:16;;;;;;;13.60;9.98;;;;;;;32.48;44.24;101573.13;5072389;28;20107;-78
2023/06/21 07:29:41;;;;;;;10.90;9.18;;;;;;;32.60;42.71;101569.72;5072319;28;20021;-78
2023/06/21 07:32:07;;;;;;;13.10;10.38;;;;;;;32.96;43.08;101563.53;5072218;28;20021;-78
2023/06/21 07:34:32;;;;;;;11.57;9.55;;;;;;;32.68;42.92;101537.31;5072707;28;20099;-78
2023/06/21 07:36:58;;;;;;;10.52;9.40;;;;;;;33.33;40.87;101569.53;5072334;28;20441;-79
2023/06/21 07:39:23;;;;;;;10.77;8.27;;;;;;;33.84;40.90;101560.91;5072220;28;20028;-77
2023/06/21 07:41:48;;;;;;;8.85;6.65;;;;;;;33.72;37.63;101573.47;5072130;28;20024;-77
2023/06/21 07:44:14;;;;;;;10.65;6.75;;;;;;;32.35;41.48;101564.44;5072266;28;20043;-78
2023/06/21 07:46:39;;;;;;;9.02;6.68;;;;;;;30.45;45.17;101571.63;5072227;28;20025;-76
2023/06/21 07:49:04;;;;;;;9.13;6.70;;;;;;;28.83;50.66;101550.63;5076515;28;20052;-76
2023/06/21 07:51:33;;;;;;;10.13;7.75;;;;;;;27.76;55.09;101585.53;5076087;28;20430;-77
2023/06/21 07:53:58;;;;;;;11.63;8.05;;;;;;;26.98;57.54;101576.50;5076283;28;20048;-78
2023/06/21 07:56:23;;;;;;;9.60;7.80;;;;;;;26.34;59.61;101568.28;5076135;28;20367;-77
2023/06/21 07:58:49;;;;;;;10.18;6.88;;;;;;;25.94;59.71;101572.16;5076159;28;20052;-78
2023/06/21 08:01:14;;;;;;;11.88;7.90;;;;;;;25.53;63.40;101561.88;5076083;28;20040;-80
2023/06/21 08:03:40;;;;;;;8.48;7.10;;;;;;;25.20;62.28;101560.47;5076267;28;20020;-79
2023/06/21 08:06:05;;;;;;;9.38;7.50;;;;;;;25.04;64.50;101564.84;5076114;28;20024;-79
2023/06/21 08:08:31;;;;;;;9.70;8.13;;;;;;;24.97;66.30;101573.59;5076111;28;20035;-79
2023/06/21 08:10:56;;;;;;;10.80;8.52;;;;;;;24.87;64.44;101582.56;5076191;28;20050;-78
2023/06/21 08:13:22;;;;;;;9.95;7.53;;;;;;;24.72;67.78;101589.56;5076129;28;20111;-78
2023/06/21 08:15:48;;;;;;;9.50;8.18;;;;;;;24.77;66.80;101587.22;5076265;28;20449;-78
2023/06/21 08:18:14;;;;;;;9.95;7.90;;;;;;;24.89;65.22;101577.94;5057524;28;20032;-79
2023/06/21 08:20:40;;;;;;;10.40;7.78;;;;;;;25.01;66.20;101596.06;5075707;28;20432;-78
2023/06/21 08:23:09;;;;;;;9.70;8.55;;;;;;;24.89;66.29;101600.91;5075960;28;20511;-78
2023/06/21 08:25:38;;;;;;;9.90;8.52;;;;;;;25.01;67.88;101596.88;5075895;28;20032;-79
2023/06/21 08:28:04;;;;;;;11.00;9.55;;;;;;;25.02;67.67;101597.72;5075599;28;20029;-79
2023/06/21 08:30:30;;;;;;;9.73;8.73;;;;;;;24.89;67.54;101601.72;5033650;28;20076;-78
2023/06/21 08:32:55;;;;;;;10.52;9.43;;;;;;;24.82;69.87;101595.47;5033483;28;20072;-80
2023/06/21 08:35:30;;;;;;;11.52;9.85;;;;;;;24.87;67.93;101606.34;5033536;28;20041;-80
2023/06/21 08:38:02;;;;;;;13.13;11.82;;;;;;;24.60;71.57;101564.53;5059844;22;20053;-80
2023/06/21 08:40:32;;;;;;;12.77;9.32;;;;;;;24.54;67.23;101570.47;5055290;28;20025;-80
2023/06/21 08:42:58;;;;;;;12.33;8.30;;;;;;;24.69;67.36;101597.84;5055502;28;20335;-80
2023/06/21 08:45:26;;;;;;;9.73;8.45;;;;;;;24.55;66.07;101595.88;5055365;28;20029;-79
2023/06/21 08:47:58;;;;;;;10.68;8.57;;;;;;;24.48;68.52;101592.25;5055323;28;20422;-80
2023/06/21 08:50:24;;;;;;;10.50;9.45;;;;;;;24.27;67.98;101563.75;5055389;28;20056;-80
2023/06/21 08:52:52;;;;;;;10.82;9.73;;;;;;;24.50;67.47;101606.16;5055221;28;20070;-78
2023/06/21 08:55:20;;;;;;;11.88;9.90;;;;;;;24.23;67.25;101584.38;5074800;28;20028;-77
2023/06/21 08:57:54;;;;;;;12.35;8.90;;;;;;;24.45;66.38;101613.72;5072294;28;20033;-78
2023/06/21 09:00:22;;;;;;;10.60;8.32;;;;;;;24.55;66.86;101609.91;5055088;28;20382;-78
2023/06/21 09:03:12;;;;;;;9.73;7.88;;;;;;;24.69;67.24;101616.34;5055040;28;20032;-79
2023/06/21 09:06:02;;;;;;;10.15;7.15;;;;;;;24.83;64.37;101620.88;5054933;28;20494;-78
2023/06/21 09:08:28;;;;;;;10.05;6.93;;;;;;;24.78;64.42;101617.97;5053529;28;20025;-78
2023/06/21 09:10:53;;;;;;;10.23;8.02;;;;;;;24.80;65.34;101615.97;5054937;28;20564;-79
2023/06/21 09:13:19;;;;;;;9.65;7.15;;;;;;;24.57;62.48;101586.78;5054797;28;20032;-79
2023/06/21 09:15:47;;;;;;;9.15;6.68;;;;;;;24.77;63.81;101615.47;5052508;28;20033;-80
2023/06/21 09:18:13;;;;;;;6.70;5.10;;;;;;;24.49;61.32;101575.47;5054691;28;20033;-79
2023/06/21 09:20:39;;;;;;;6.18;4.45;;;;;;;24.79;62.85;101629.34;5054808;28;20039;-80
2023/06/21 09:23:05;;;;;;;7.25;4.97;;;;;;;24.75;60.64;101626.19;5069827;28;20128;-79
2023/06/21 09:25:30;;;;;;;7.75;5.35;;;;;;;24.87;60.95;101624.81;5054511;28;20096;-80
2023/06/21 09:27:56;;;;;;;8.50;5.80;;;;;;;24.86;60.36;101623.19;5054266;28;20021;-80
2023/06/21 09:30:23;;;;;;;7.53;4.85;;;;;;;24.86;62.67;101628.47;5054499;28;20033;-78
2023/06/21 09:32:49;;;;;;;7.13;4.47;;;;;;;24.89;62.39;101640.53;5054722;28;20020;-79
2023/06/21 09:35:15;;;;;;;6.13;4.25;;;;;;;24.89;60.81;101629.97;5054509;28;20025;-79
2023/06/21 09:37:40;;;;;;;5.82;3.85;;;;;;;24.83;57.74;101620.06;5053048;28;20048;-80
2023/06/21 09:40:07;;;;;;;5.10;3.53;;;;;;;24.88;59.58;101629.16;5054283;28;20548;-80
2023/06/21 09:42:38;;;;;;;4.78;3.40;;;;;;;24.99;59.84;101640.34;5052347;28;20402;-80
2023/06/21 09:45:11;;;;;;;5.60;3.50;;;;;;;24.93;59.63;101643.66;5053912;28;20017;-80
2023/06/21 09:47:40;;;;;;;6.43;4.65;;;;;;;24.78;59.91;101604.75;5054318;28;20028;-79
2023/06/21 09:50:08;;;;;;;8.27;6.07;;;;;;;24.82;59.98;101645.66;5054172;28;20377;-79
2023/06/21 09:52:34;;;;;;;7.25;5.40;;;;;;;24.67;62.53;101649.16;5054035;28;20041;-80
2023/06/21 09:55:02;;;;;;;9.45;6.00;;;;;;;24.75;62.95;101630.66;5054106;28;20037;-79
2023/06/21 09:57:29;;;;;;;7.05;5.32;;;;;;;25.02;60.19;101648.75;5053948;28;20111;-81
2023/06/21 09:59:56;;;;;;;5.57;3.55;;;;;;;24.96;59.72;101619.50;5053850;28;20368;-77
2023/06/21 10:02:21;;;;;;;7.18;3.78;;;;;;;25.03;57.39;101642.47;5054074;28;20029;-79
2023/06/21 10:04:47;;;;;;;7.28;3.88;;;;;;;25.08;58.21;101645.44;5054070;28;20083;-79
2023/06/21 10:07:14;;;;;;;5.95;4.18;;;;;;;24.90;58.26;101615.75;5053569;28;20463;-78
2023/06/21 10:09:40;;;;;;;6.90;4.97;;;;;;;25.12;59.59;101649.38;5051633;28;20080;-79
2023/06/21 10:12:09;;;;;;;5.80;4.03;;;;;;;24.99;58.77;101650.91;5053544;28;20025;-79
2023/06/21 10:14:34;;;;;;;7.05;4.80;;;;;;;24.86;59.34;101654.88;5053197;28;20029;-79
2023/06/21 10:17:01;;;;;;;6.88;4.50;;;;;;;24.84;62.62;101632.28;5053712;28;20158;-79
2023/06/21 10:19:30;;;;;;;5.82;4.72;;;;;;;24.73;58.22;101633.47;5052305;28;20029;-81
2023/06/21 10:22:10;;;;;;;8.07;5.25;;;;;;;24.56;59.50;101645.06;5053572;28;20096;-78
2023/06/21 10:24:47;;;;;;;6.70;4.93;;;;;;;24.76;62.80;101670.09;5053601;28;20021;-80
2023/06/21 10:27:13;;;;;;;6.88;4.43;;;;;;;24.81;61.04;101649.31;5053276;28;20036;-80
2023/06/21 10:29:41;;;;;;;9.10;5.35;;;;;;;24.80;60.18;101652.94;5053131;28;20021;-78
2023/06/21 10:32:25;;;;;;;5.82;4.93;;;;;;;24.85;61.84;101628.66;5051668;28;20040;-79
2023/06/21 10:34:57;;;;;;;7.05;4.30;;;;;;;25.06;59.32;101680.94;5043377;22;20080;-79
2023/06/21 10:37:50;;;;;;;3.15;2.40;;;;;;;25.05;57.90;101674.84;5033397;28;20038;-79
2023/06/21 10:40:17;;;;;;;3.78;2.25;;;;;;;25.01;53.81;101677.97;5033471;28;20121;-79
2023/06/21 10:42:44;;;;;;;3.53;2.20;;;;;;;24.98;53.13;101689.72;5033230;28;20550;-79
2023/06/21 10:45:11;;;;;;;3.72;2.22;;;;;;;24.75;52.02;101655.25;5032954;28;20112;-80
2023/06/21 10:47:54;;;;;;;3.00;1.80;;;;;;;24.73;55.37;101670.44;5033126;28;20079;-83
2023/06/21 10:50:20;;;;;;;4.68;2.03;;;;;;;25.00;56.96;101690.38;5033699;28;20454;-83
2023/06/21 10:52:47;;;;;;;4.22;2.22;;;;;;;24.62;55.55;101617.16;5039596;23;20073;-83
2023/06/21 10:55:13;;;;;;;3.65;2.00;;;;;;;24.50;55.95;101595.59;5032086;28;20021;-83
2023/06/21 11:00:18;;;;;;;3.80;2.10;;;;;;;25.10;54.37;101669.06;5039463;22;20053;-83
2023/06/21 11:02:44;;;;;;;3.97;2.22;;;;;;;24.31;55.61;101530.78;5124231;22;20504;-83
2023/06/21 11:05:29;;;;;;;3.70;1.85;;;;;;;24.57;52.60;101563.03;5053026;28;20025;-83
2023/06/21 11:08:04;;;;;;;3.10;1.85;;;;;;;24.30;52.89;101529.94;5052621;28;20390;-83
2023/06/21 11:10:53;;;;;;;3.45;1.98;;;;;;;25.35;54.70;101694.38;5034680;28;20025;-83